createdAt,value
2022-11-18T00:00:23.966Z,5.1
2022-11-18T00:01:32.289Z,5.1
2022-11-18T00:02:40.708Z,5.1
2022-11-18T00:03:49.165Z,4.2
2022-11-18T00:04:57.554Z,4.2
2022-11-18T00:06:05.905Z,4.2
2022-11-18T00:07:14.499Z,3
2022-11-18T00:08:22.754Z,3
2022-11-18T00:09:31.077Z,3
2022-11-18T00:10:39.605Z,3
2022-11-18T00:11:47.953Z,3
2022-11-18T00:12:56.282Z,3
2022-11-18T00:14:04.829Z,2.8
2022-11-18T00:15:13.152Z,2.8
2022-11-18T00:16:21.491Z,2.8
2022-11-18T00:17:30.026Z,3.9
2022-11-18T00:18:38.372Z,3.9
2022-11-18T00:19:46.703Z,3.9
2022-11-18T00:20:55.248Z,3.9
2022-11-18T00:22:03.615Z,3.9
2022-11-18T00:23:11.927Z,3.9
2022-11-18T00:24:20.478Z,4.5
2022-11-18T00:25:28.809Z,4.5
2022-11-18T00:26:37.143Z,4.5
2022-11-18T00:27:45.686Z,3.9
2022-11-18T00:28:54.024Z,3.9
2022-11-18T00:30:02.345Z,3.9
2022-11-18T00:31:10.885Z,4.4
2022-11-18T00:32:19.213Z,4.4
2022-11-18T00:33:27.544Z,4.4
2022-11-18T00:34:36.092Z,3.5
2022-11-18T00:35:44.415Z,3.5
2022-11-18T00:36:52.754Z,3.5
2022-11-18T00:38:01.326Z,5.6
2022-11-18T00:39:09.636Z,5.6
2022-11-18T00:40:17.968Z,5.6
2022-11-18T00:41:26.497Z,3.4
2022-11-18T00:42:34.828Z,3.4
2022-11-18T00:43:43.159Z,3.4
2022-11-18T00:44:51.703Z,3.7
2022-11-18T00:46:00.031Z,3.7
2022-11-18T00:47:08.366Z,3.7
2022-11-18T00:48:16.909Z,5.7
2022-11-18T00:49:25.239Z,5.7
2022-11-18T00:50:33.582Z,5.7
2022-11-18T00:51:42.112Z,4.9
2022-11-18T00:52:50.447Z,4.9
2022-11-18T00:53:58.807Z,4.9
2022-11-18T00:55:07.323Z,5.1
2022-11-18T00:56:15.661Z,5.1
2022-11-18T00:57:23.995Z,5.1
2022-11-18T00:58:32.547Z,6.1
2022-11-18T00:59:40.868Z,6.1
2022-11-18T01:00:49.225Z,6.1
2022-11-18T01:01:57.740Z,5.5
2022-11-18T01:03:06.052Z,5.5
2022-11-18T01:04:14.382Z,5.5
2022-11-18T01:05:22.924Z,5.2
2022-11-18T01:06:31.250Z,5.2
2022-11-18T01:07:39.655Z,5.2
2022-11-18T01:08:48.133Z,5
2022-11-18T01:09:56.486Z,5
2022-11-18T01:11:04.799Z,5
2022-11-18T01:12:13.346Z,6.2
2022-11-18T01:13:21.688Z,6.2
2022-11-18T01:14:30.019Z,6.2
2022-11-18T01:15:38.558Z,5.6
2022-11-18T01:16:46.891Z,5.6
2022-11-18T01:17:55.221Z,5.6
2022-11-18T01:19:03.775Z,5.3
2022-11-18T01:20:12.108Z,5.3
2022-11-18T01:21:20.437Z,5.3
2022-11-18T01:22:28.993Z,5.1
2022-11-18T01:23:37.354Z,5.1
2022-11-18T01:24:45.683Z,5.1
2022-11-18T01:25:54.251Z,4.9
2022-11-18T01:27:02.561Z,4.9
2022-11-18T01:28:10.901Z,4.9
2022-11-18T01:29:19.723Z,3.9
2022-11-18T01:30:27.799Z,3.9
2022-11-18T01:31:42.239Z,3.9
2022-11-18T01:32:44.670Z,4.2
2022-11-18T01:33:53.019Z,4.2
2022-11-18T01:35:01.344Z,4.2
2022-11-18T01:36:09.877Z,5.2
2022-11-18T01:37:18.209Z,5.2
2022-11-18T01:38:26.554Z,5.2
2022-11-18T01:39:35.095Z,4.1
2022-11-18T01:40:43.436Z,4.1
2022-11-18T01:41:52.351Z,4.1
2022-11-18T01:43:00.871Z,6.5
2022-11-18T01:44:09.217Z,6.5
2022-11-18T01:45:17.558Z,6.5
2022-11-18T01:46:26.090Z,4.4
2022-11-18T01:47:34.433Z,4.4
2022-11-18T01:48:42.778Z,4.4
2022-11-18T01:49:51.309Z,4.5
2022-11-18T01:50:59.643Z,4.5
2022-11-18T01:52:07.968Z,4.5
2022-11-18T01:53:16.509Z,4.5
2022-11-18T01:54:24.847Z,4.5
2022-11-18T01:55:33.186Z,4.5
2022-11-18T01:56:41.734Z,5.5
2022-11-18T01:57:50.088Z,5.5
2022-11-18T01:58:58.399Z,5.5
2022-11-18T02:00:06.942Z,5.8
2022-11-18T02:01:15.361Z,5.8
2022-11-18T02:02:23.613Z,5.8
2022-11-18T02:03:32.156Z,4.2
2022-11-18T02:04:40.492Z,4.2
2022-11-18T02:05:48.826Z,4.2
2022-11-18T02:06:57.414Z,5
2022-11-18T02:08:05.720Z,5
2022-11-18T02:09:14.027Z,5
2022-11-18T02:10:22.569Z,4.4
2022-11-18T02:11:30.940Z,4.4
2022-11-18T02:12:39.234Z,4.4
2022-11-18T02:13:47.820Z,5
2022-11-18T02:14:56.122Z,5
2022-11-18T02:16:04.445Z,5
2022-11-18T02:17:12.986Z,5.3
2022-11-18T02:18:21.314Z,5.3
2022-11-18T02:19:29.656Z,5.3
2022-11-18T02:20:38.205Z,6.3
2022-11-18T02:21:46.543Z,6.3
2022-11-18T02:22:54.883Z,6.3
2022-11-18T02:24:03.446Z,5.5
2022-11-18T02:25:11.781Z,5.5
2022-11-18T02:26:20.107Z,5.5
2022-11-18T02:27:28.651Z,5.3
2022-11-18T02:28:36.995Z,5.3
2022-11-18T02:29:45.359Z,5.3
2022-11-18T02:30:53.865Z,5.6
2022-11-18T02:32:02.211Z,5.6
2022-11-18T02:33:10.549Z,5.6
2022-11-18T02:34:19.093Z,5
2022-11-18T02:35:27.429Z,5
2022-11-18T02:36:35.770Z,5
2022-11-18T02:37:44.306Z,4.6
2022-11-18T02:38:52.649Z,4.6
2022-11-18T02:40:00.980Z,4.6
2022-11-18T02:41:09.520Z,4.7
2022-11-18T02:42:17.863Z,4.7
2022-11-18T02:43:26.205Z,4.7
2022-11-18T02:44:34.758Z,5.7
2022-11-18T02:45:43.110Z,5.7
2022-11-18T02:46:51.422Z,5.7
2022-11-18T02:47:59.964Z,5.6
2022-11-18T02:49:08.315Z,5.6
2022-11-18T02:50:16.655Z,5.6
2022-11-18T02:51:25.190Z,6
2022-11-18T02:52:33.532Z,6
2022-11-18T02:53:41.874Z,6
2022-11-18T02:54:50.412Z,4.7
2022-11-18T02:55:58.743Z,4.7
2022-11-18T02:57:07.073Z,4.7
2022-11-18T02:58:15.618Z,5.8
2022-11-18T02:59:23.958Z,5.8
2022-11-18T03:00:32.284Z,5.8
2022-11-18T03:01:40.909Z,4.7
2022-11-18T03:02:49.162Z,4.7
2022-11-18T03:03:57.508Z,4.7
2022-11-18T03:05:06.041Z,4.4
2022-11-18T03:06:14.369Z,4.4
2022-11-18T03:07:22.706Z,4.4
2022-11-18T03:08:31.242Z,3.1
2022-11-18T03:09:39.581Z,3.1
2022-11-18T03:10:47.919Z,3.1
2022-11-18T03:11:56.460Z,4.5
2022-11-18T03:13:04.790Z,4.5
2022-11-18T03:14:13.135Z,4.5
2022-11-18T03:15:21.687Z,3.7
2022-11-18T03:16:30.021Z,3.7
2022-11-18T03:17:38.371Z,3.7
2022-11-18T03:18:46.898Z,4
2022-11-18T03:19:55.230Z,4
2022-11-18T03:21:03.575Z,4
2022-11-18T03:22:12.124Z,4
2022-11-18T03:23:20.442Z,4
2022-11-18T03:24:28.776Z,4
2022-11-18T03:25:37.318Z,3.9
2022-11-18T03:26:45.660Z,3.9
2022-11-18T03:27:53.996Z,3.9
2022-11-18T03:29:02.544Z,3.5
2022-11-18T03:30:10.871Z,3.5
2022-11-18T03:31:19.203Z,3.5
2022-11-18T03:32:27.740Z,3.3
2022-11-18T03:33:36.112Z,3.3
2022-11-18T03:34:44.415Z,3.3
2022-11-18T03:35:52.950Z,3.4
2022-11-18T03:37:03.276Z,3.4
2022-11-18T03:38:09.612Z,3.4
2022-11-18T03:39:18.313Z,3.2
2022-11-18T03:40:26.493Z,3.2
2022-11-18T03:41:34.822Z,3.2
2022-11-18T03:42:43.361Z,3.8
2022-11-18T03:43:51.702Z,3.8
2022-11-18T03:45:00.029Z,3.8
2022-11-18T03:46:08.564Z,4.5
2022-11-18T03:47:16.900Z,4.5
2022-11-18T03:48:25.236Z,4.5
2022-11-18T03:49:34.277Z,2.9
2022-11-18T03:50:42.109Z,2.9
2022-11-18T03:51:50.445Z,2.9
2022-11-18T03:52:59.006Z,2.9
2022-11-18T03:54:07.339Z,2.9
2022-11-18T03:55:15.687Z,2.9
2022-11-18T03:56:24.234Z,2.2
2022-11-18T03:57:32.558Z,2.2
2022-11-18T03:58:40.914Z,2.2
2022-11-18T03:59:49.451Z,2.7
2022-11-18T04:00:57.778Z,2.7
2022-11-18T04:02:06.143Z,2.7
2022-11-18T04:03:14.649Z,1.8
2022-11-18T04:04:22.990Z,1.8
2022-11-18T04:05:31.333Z,1.8
2022-11-18T04:06:39.867Z,2.5
2022-11-18T04:07:48.201Z,2.5
2022-11-18T04:08:56.535Z,2.5
2022-11-18T04:10:05.063Z,3.6
2022-11-18T04:11:13.384Z,3.6
2022-11-18T04:12:21.711Z,3.6
2022-11-18T04:13:30.259Z,1.8
2022-11-18T04:14:38.603Z,1.8
2022-11-18T04:15:46.926Z,1.8
2022-11-18T04:16:55.472Z,3.2
2022-11-18T04:18:03.797Z,3.2
2022-11-18T04:19:12.129Z,3.2
2022-11-18T04:20:20.667Z,2.5
2022-11-18T04:21:29.026Z,2.5
2022-11-18T04:22:37.324Z,2.5
2022-11-18T04:23:45.868Z,2.9
2022-11-18T04:24:54.220Z,2.9
2022-11-18T04:26:02.555Z,2.9
2022-11-18T04:27:11.096Z,3.3
2022-11-18T04:28:19.418Z,3.3
2022-11-18T04:29:27.758Z,3.3
2022-11-18T04:30:36.290Z,4.4
2022-11-18T04:31:44.614Z,4.4
2022-11-18T04:32:52.953Z,4.4
2022-11-18T04:34:01.891Z,3.3
2022-11-18T04:35:14.853Z,3.3
2022-11-18T04:36:26.345Z,3.3
2022-11-18T04:37:34.549Z,3.6
2022-11-18T04:38:42.847Z,3.6
2022-11-18T04:39:51.175Z,3.6
2022-11-18T04:40:59.778Z,3.9
2022-11-18T04:42:08.111Z,3.9
2022-11-18T04:43:16.441Z,3.9
2022-11-18T04:44:24.995Z,3.7
2022-11-18T04:45:33.333Z,3.7
2022-11-18T04:46:41.660Z,3.7
2022-11-18T04:47:50.197Z,4.2
2022-11-18T04:48:58.543Z,4.2
2022-11-18T04:50:07.059Z,4.2
2022-11-18T04:51:15.612Z,12.9
2022-11-18T04:52:23.950Z,12.9
2022-11-18T04:53:32.379Z,12.9
2022-11-18T04:54:40.817Z,7.1
2022-11-18T04:55:49.153Z,7.1
2022-11-18T04:56:57.507Z,7.1
2022-11-18T04:58:06.047Z,5.3
2022-11-18T04:59:15.052Z,5.3
2022-11-18T05:00:23.244Z,5.3
2022-11-18T05:01:31.892Z,5.2
2022-11-18T05:02:40.141Z,5.2
2022-11-18T05:03:50.653Z,5.2
2022-11-18T05:04:57.022Z,5.3
2022-11-18T05:06:05.358Z,5.3
2022-11-18T05:07:13.758Z,5.3
2022-11-18T05:08:22.231Z,8.3
2022-11-18T05:09:32.171Z,8.3
2022-11-18T05:10:38.908Z,8.3
2022-11-18T05:11:47.459Z,23.5
2022-11-18T05:12:55.794Z,23.5
2022-11-18T05:14:04.132Z,23.5
2022-11-18T05:15:12.657Z,16.299999
2022-11-18T05:16:20.986Z,16.299999
2022-11-18T05:17:29.321Z,16.299999
2022-11-18T05:18:37.857Z,7.2
2022-11-18T05:19:46.207Z,7.2
2022-11-18T05:20:54.517Z,7.2
2022-11-18T05:22:03.055Z,5.8
2022-11-18T05:23:11.386Z,5.8
2022-11-18T05:24:19.736Z,5.8
2022-11-18T05:25:28.297Z,4.8
2022-11-18T05:26:36.605Z,4.8
2022-11-18T05:27:44.930Z,4.8
2022-11-18T05:28:53.473Z,12.7
2022-11-18T05:30:01.821Z,12.7
2022-11-18T05:31:10.132Z,12.7
2022-11-18T05:32:18.664Z,28.6
2022-11-18T05:33:27.002Z,28.6
2022-11-18T05:34:35.338Z,28.6
2022-11-18T05:35:43.876Z,25.9
2022-11-18T05:36:52.203Z,25.9
2022-11-18T05:38:00.533Z,25.9
2022-11-18T05:39:09.088Z,27.5
2022-11-18T05:40:17.432Z,27.5
2022-11-18T05:41:25.777Z,27.5
2022-11-18T05:42:34.281Z,6.7
2022-11-18T05:43:42.627Z,6.7
2022-11-18T05:44:56.307Z,6.7
2022-11-18T05:45:59.492Z,6.8
2022-11-18T05:47:07.826Z,6.8
2022-11-18T05:48:16.144Z,6.8
2022-11-18T05:49:24.707Z,27.299999
2022-11-18T05:50:33.036Z,27.299999
2022-11-18T05:51:41.386Z,27.299999
2022-11-18T05:52:49.919Z,5.1
2022-11-18T05:53:58.254Z,5.1
2022-11-18T05:55:06.581Z,5.1
2022-11-18T05:56:15.123Z,5.8
2022-11-18T05:57:23.480Z,5.8
2022-11-18T05:58:31.802Z,5.8
2022-11-18T05:59:40.335Z,6.7
2022-11-18T06:00:48.676Z,6.7
2022-11-18T06:01:57.004Z,6.7
2022-11-18T06:03:05.606Z,5.8
2022-11-18T06:04:13.876Z,5.8
2022-11-18T06:05:22.214Z,5.8
2022-11-18T06:06:30.744Z,5.7
2022-11-18T06:07:39.181Z,5.7
2022-11-18T06:08:47.428Z,5.7
2022-11-18T06:09:55.963Z,5.4
2022-11-18T06:11:04.289Z,5.4
2022-11-18T06:12:12.614Z,5.4
2022-11-18T06:13:21.324Z,6.5
2022-11-18T06:14:29.488Z,6.5
2022-11-18T06:15:37.817Z,6.5
2022-11-18T06:16:46.359Z,5.9
2022-11-18T06:17:54.685Z,5.9
2022-11-18T06:19:03.027Z,5.9
2022-11-18T06:20:11.558Z,5.7
2022-11-18T06:21:19.894Z,5.7
2022-11-18T06:22:28.227Z,5.7
2022-11-18T06:23:36.777Z,5.2
2022-11-18T06:24:45.111Z,5.2
2022-11-18T06:25:53.433Z,5.2
2022-11-18T06:27:01.964Z,5.4
2022-11-18T06:28:10.290Z,5.4
2022-11-18T06:29:21.644Z,5.4
2022-11-18T06:30:27.387Z,4.8
2022-11-18T06:31:35.716Z,4.8
2022-11-18T06:32:44.038Z,4.8
2022-11-18T06:33:52.576Z,5.2
2022-11-18T06:35:00.914Z,5.2
2022-11-18T06:36:09.239Z,5.2
2022-11-18T06:37:17.780Z,5.1
2022-11-18T06:38:26.111Z,5.1
2022-11-18T06:39:34.444Z,5.1
2022-11-18T06:40:42.979Z,5.6
2022-11-18T06:41:51.315Z,5.6
2022-11-18T06:42:59.650Z,5.6
2022-11-18T06:44:08.192Z,8.4
2022-11-18T06:45:16.574Z,8.4
2022-11-18T06:46:24.849Z,8.4
2022-11-18T06:47:33.390Z,5.9
2022-11-18T06:48:41.736Z,5.9
2022-11-18T06:49:50.062Z,5.9
2022-11-18T06:50:58.604Z,6.8
2022-11-18T06:52:06.935Z,6.8
2022-11-18T06:53:15.270Z,6.8
2022-11-18T06:54:23.827Z,6.8
2022-11-18T06:55:32.237Z,6.8
2022-11-18T06:56:40.569Z,6.8
2022-11-18T06:57:49.115Z,10.6
2022-11-18T06:58:57.454Z,10.6
2022-11-18T07:00:05.784Z,10.6
2022-11-18T07:01:14.429Z,10.9
2022-11-18T07:02:22.653Z,10.9
2022-11-18T07:03:31.009Z,10.9
2022-11-18T07:04:39.544Z,8.4
2022-11-18T07:05:47.959Z,8.4
2022-11-18T07:06:56.262Z,8.4
2022-11-18T07:08:04.753Z,8
2022-11-18T07:09:13.091Z,8
2022-11-18T07:10:21.422Z,8
2022-11-18T07:11:29.960Z,9
2022-11-18T07:12:38.294Z,9
2022-11-18T07:13:46.631Z,9
2022-11-18T07:14:55.180Z,15.7
2022-11-18T07:16:03.514Z,15.7
2022-11-18T07:17:11.869Z,15.7
2022-11-18T07:18:20.384Z,10.2
2022-11-18T07:19:32.853Z,10.2
2022-11-18T07:20:37.052Z,10.2
2022-11-18T07:21:45.587Z,5.9
2022-11-18T07:22:53.916Z,5.9
2022-11-18T07:24:02.261Z,5.9
2022-11-18T07:25:10.798Z,4.1
2022-11-18T07:26:19.130Z,4.1
2022-11-18T07:27:27.477Z,4.1
2022-11-18T07:28:36.025Z,5.3
2022-11-18T07:29:44.348Z,5.3
2022-11-18T07:30:52.685Z,5.3
2022-11-18T07:32:01.221Z,4.7
2022-11-18T07:33:09.658Z,4.7
2022-11-18T07:34:17.893Z,4.7
2022-11-18T07:35:26.426Z,5.1
2022-11-18T07:36:36.001Z,5.1
2022-11-18T07:37:43.098Z,5.1
2022-11-18T07:38:51.632Z,4.1
2022-11-18T07:39:59.969Z,4.1
2022-11-18T07:41:08.296Z,4.1
2022-11-18T07:42:16.842Z,4.5
2022-11-18T07:43:25.180Z,4.5
2022-11-18T07:44:33.521Z,4.5
2022-11-18T07:45:42.059Z,4.7
2022-11-18T07:46:50.393Z,4.7
2022-11-18T07:47:58.721Z,4.7
2022-11-18T07:49:07.321Z,4.6
2022-11-18T07:50:15.641Z,4.6
2022-11-18T07:51:23.975Z,4.6
2022-11-18T07:52:32.503Z,6
2022-11-18T07:53:40.837Z,6
2022-11-18T07:54:49.163Z,6
2022-11-18T07:55:57.707Z,7
2022-11-18T07:57:06.036Z,7
2022-11-18T07:58:14.378Z,7
2022-11-18T07:59:22.919Z,5.3
2022-11-18T08:00:31.261Z,5.3
2022-11-18T08:01:39.696Z,5.3
2022-11-18T08:02:48.134Z,5.1
2022-11-18T08:03:56.481Z,5.1
2022-11-18T08:05:04.940Z,5.1
2022-11-18T08:06:13.350Z,6.4
2022-11-18T08:07:21.822Z,6.4
2022-11-18T08:08:30.047Z,6.4
2022-11-18T08:09:38.579Z,5.7
2022-11-18T08:10:46.899Z,5.7
2022-11-18T08:11:55.232Z,5.7
2022-11-18T08:13:03.782Z,8.5
2022-11-18T08:14:12.119Z,8.5
2022-11-18T08:15:20.441Z,8.5
2022-11-18T08:16:28.998Z,8.7
2022-11-18T08:17:37.320Z,8.7
2022-11-18T08:18:45.666Z,8.7
2022-11-18T08:19:54.202Z,12.4
2022-11-18T08:21:02.561Z,12.4
2022-11-18T08:22:10.876Z,12.4
2022-11-18T08:23:19.417Z,10.5
2022-11-18T08:24:27.754Z,10.5
2022-11-18T08:25:36.084Z,10.5
2022-11-18T08:26:44.623Z,19.200001
2022-11-18T08:27:52.950Z,19.200001
2022-11-18T08:29:01.422Z,19.200001
2022-11-18T08:30:09.845Z,17.1
2022-11-18T08:31:18.173Z,17.1
2022-11-18T08:32:26.497Z,17.1
2022-11-18T08:33:35.046Z,26.299999
2022-11-18T08:34:43.389Z,26.299999
2022-11-18T08:35:51.709Z,26.299999
2022-11-18T08:37:00.277Z,30.1
2022-11-18T08:38:08.578Z,30.1
2022-11-18T08:39:17.088Z,30.1
2022-11-18T08:40:25.545Z,28.799999
2022-11-18T08:41:33.818Z,28.799999
2022-11-18T08:42:42.151Z,28.799999
2022-11-18T08:43:50.695Z,18.799999
2022-11-18T08:44:59.027Z,18.799999
2022-11-18T08:46:07.350Z,18.799999
2022-11-18T08:47:15.891Z,22.799999
2022-11-18T08:48:24.223Z,22.799999
2022-11-18T08:49:32.765Z,22.799999
2022-11-18T08:50:41.101Z,18.799999
2022-11-18T08:51:49.438Z,18.799999
2022-11-18T08:52:57.912Z,18.799999
2022-11-18T08:54:06.310Z,23.700001
2022-11-18T08:55:14.637Z,23.700001
2022-11-18T08:56:22.977Z,23.700001
2022-11-18T08:57:31.516Z,41.099998
2022-11-18T08:58:39.874Z,41.099998
2022-11-18T08:59:48.196Z,41.099998
2022-11-18T09:00:56.735Z,37.700001
2022-11-18T09:02:05.144Z,37.700001
2022-11-18T09:03:13.403Z,37.700001
2022-11-18T09:04:21.942Z,29.200001
2022-11-18T09:05:30.272Z,29.200001
2022-11-18T09:06:38.598Z,29.200001
2022-11-18T09:07:47.197Z,22.200001
2022-11-18T09:08:55.502Z,22.200001
2022-11-18T09:10:03.810Z,22.200001
2022-11-18T09:11:12.340Z,53.900002
2022-11-18T09:12:20.666Z,53.900002
2022-11-18T09:15:45.880Z,57.299999
2022-11-18T09:16:54.271Z,57.299999
2022-11-18T09:18:02.801Z,54.599998
2022-11-18T09:19:45.429Z,54.599998
2022-11-18T09:20:19.479Z,54.599998
2022-11-18T09:21:28.032Z,19.4
2022-11-18T09:22:36.361Z,19.4
2022-11-18T09:23:44.695Z,19.4
2022-11-18T09:24:53.257Z,11.2
2022-11-18T09:26:01.561Z,11.2
2022-11-18T09:27:15.337Z,11.2
2022-11-18T09:28:18.435Z,11.5
2022-11-18T09:29:26.771Z,11.5
2022-11-18T09:30:35.097Z,11.5
2022-11-18T09:31:43.639Z,10
2022-11-18T09:32:51.974Z,10
2022-11-18T09:34:00.322Z,10
2022-11-18T09:35:08.863Z,17.799999
2022-11-18T09:36:17.189Z,17.799999
2022-11-18T09:37:25.522Z,17.799999
2022-11-18T09:38:34.069Z,19.6
2022-11-18T09:39:42.393Z,19.6
2022-11-18T09:40:51.830Z,19.6
2022-11-18T09:41:59.275Z,18.700001
2022-11-18T09:43:07.591Z,18.700001
2022-11-18T09:44:15.925Z,18.700001
2022-11-18T09:45:24.924Z,6.4
2022-11-18T09:46:32.810Z,6.4
2022-11-18T09:47:41.142Z,6.4
2022-11-18T09:48:49.698Z,14.7
2022-11-18T09:49:58.036Z,14.7
2022-11-18T09:51:06.366Z,14.7
2022-11-18T09:52:14.896Z,15.5
2022-11-18T09:53:23.221Z,15.5
2022-11-18T09:54:31.564Z,15.5
2022-11-18T09:55:40.100Z,11
2022-11-18T09:56:48.600Z,11
2022-11-18T09:57:56.776Z,11
2022-11-18T09:59:05.319Z,12.1
2022-11-18T10:00:13.649Z,12.1
2022-11-18T10:01:22.053Z,12.1
2022-11-18T10:02:30.523Z,43.099998
2022-11-18T10:03:38.867Z,43.099998
2022-11-18T10:04:47.202Z,43.099998
2022-11-18T10:05:55.745Z,124.8
2022-11-18T10:07:04.120Z,124.8
2022-11-18T10:08:12.413Z,124.8
2022-11-18T10:09:20.979Z,32.700001
2022-11-18T10:10:29.288Z,32.700001
2022-11-18T10:11:41.422Z,32.700001
2022-11-18T10:12:46.180Z,24.700001
2022-11-18T10:13:54.495Z,24.700001
2022-11-18T10:15:02.828Z,24.700001
2022-11-18T10:16:11.387Z,26.9
2022-11-18T10:17:19.717Z,26.9
2022-11-18T10:19:36.599Z,29.1
2022-11-18T10:20:44.932Z,29.1
2022-11-18T10:21:53.290Z,29.1
2022-11-18T10:23:01.818Z,31.299999
2022-11-18T10:24:10.148Z,31.299999
2022-11-18T10:25:18.485Z,31.299999
2022-11-18T10:26:27.038Z,15.5
2022-11-18T10:27:35.362Z,15.5
2022-11-18T10:28:43.716Z,15.5
2022-11-18T10:29:52.234Z,20.799999
2022-11-18T10:31:00.578Z,20.799999
2022-11-18T10:32:08.908Z,20.799999
2022-11-18T10:33:17.447Z,39.099998
2022-11-18T10:34:25.776Z,39.099998
2022-11-18T10:35:34.117Z,39.099998
2022-11-18T10:36:42.658Z,30.5
2022-11-18T10:38:07.169Z,30.5
2022-11-18T10:38:59.359Z,30.5
2022-11-18T10:40:07.897Z,23.4
2022-11-18T10:41:16.227Z,23.4
2022-11-18T10:42:24.564Z,23.4
2022-11-18T10:43:33.119Z,13.8
2022-11-18T10:44:41.484Z,13.8
2022-11-18T10:45:49.781Z,13.8
2022-11-18T10:46:58.328Z,9
2022-11-18T10:48:06.661Z,9
2022-11-18T10:49:14.996Z,9
2022-11-18T10:50:23.537Z,12.4
2022-11-18T10:51:31.866Z,12.4
2022-11-18T10:52:40.194Z,12.4
2022-11-18T10:53:48.741Z,13.4
2022-11-18T10:54:57.079Z,13.4
2022-11-18T10:56:05.410Z,13.4
2022-11-18T10:57:13.959Z,21
2022-11-18T10:58:22.401Z,21
2022-11-18T10:59:30.626Z,21
2022-11-18T11:00:39.190Z,17.6
2022-11-18T11:01:47.555Z,17.6
2022-11-18T11:02:55.827Z,17.6
2022-11-18T11:04:04.374Z,16.9
2022-11-18T11:05:12.724Z,16.9
2022-11-18T11:06:21.057Z,16.9
2022-11-18T11:07:29.638Z,18.9
2022-11-18T11:08:38.109Z,18.9
2022-11-18T11:09:46.288Z,18.9
2022-11-18T11:10:54.823Z,20.799999
2022-11-18T11:12:03.164Z,20.799999
2022-11-18T11:13:11.497Z,20.799999
2022-11-18T11:14:20.472Z,31.799999
2022-11-18T11:15:28.392Z,31.799999
2022-11-18T11:16:36.743Z,31.799999
2022-11-18T11:17:45.305Z,21.799999
2022-11-18T11:18:53.593Z,21.799999
2022-11-18T11:20:01.923Z,21.799999
2022-11-18T11:21:10.466Z,20.299999
2022-11-18T11:22:18.806Z,20.299999
2022-11-18T11:23:27.143Z,20.299999
2022-11-18T11:24:35.705Z,12.6
2022-11-18T11:28:16.824Z,8.2
2022-11-18T11:29:09.256Z,8.2
2022-11-18T11:30:17.627Z,8.2
2022-11-18T11:31:26.148Z,6
2022-11-18T11:32:34.540Z,6
2022-11-18T11:33:42.809Z,6
2022-11-18T11:34:51.351Z,7.6
2022-11-18T11:35:59.679Z,7.6
2022-11-18T11:37:08.001Z,7.6
2022-11-18T11:38:16.544Z,47.700001
2022-11-18T11:39:24.881Z,47.700001
2022-11-18T11:40:33.212Z,47.700001
2022-11-18T11:41:41.756Z,9
2022-11-18T11:42:50.085Z,9
2022-11-18T11:43:58.420Z,9
2022-11-18T11:45:06.966Z,8.2
2022-11-18T11:46:15.283Z,8.2
2022-11-18T11:47:23.610Z,8.2
2022-11-18T11:48:32.220Z,12.1
2022-11-18T11:49:40.490Z,12.1
2022-11-18T11:50:54.840Z,12.1
2022-11-18T11:51:57.367Z,8.7
2022-11-18T11:53:05.700Z,8.7
2022-11-18T11:54:14.040Z,8.7
2022-11-18T11:55:22.574Z,11.5
2022-11-18T11:56:30.900Z,11.5
2022-11-18T11:57:39.226Z,11.5
2022-11-18T11:58:47.777Z,23.799999
2022-11-18T11:59:56.113Z,23.799999
2022-11-18T12:01:04.447Z,23.799999
2022-11-18T12:02:12.988Z,14.9
2022-11-18T12:03:21.370Z,14.9
2022-11-18T12:04:29.809Z,14.9
2022-11-18T12:05:38.189Z,12.8
2022-11-18T12:06:46.519Z,12.8
2022-11-18T12:07:54.854Z,12.8
2022-11-18T12:09:03.406Z,27
2022-11-18T12:10:11.739Z,27
2022-11-18T12:11:20.061Z,27
2022-11-18T12:12:28.597Z,10.7
2022-11-18T12:13:36.956Z,10.7
2022-11-18T12:14:45.286Z,10.7
2022-11-18T12:15:53.839Z,18.6
2022-11-18T12:17:02.163Z,18.6
2022-11-18T12:18:10.496Z,18.6
2022-11-18T12:19:19.283Z,16
2022-11-18T12:20:27.390Z,16
2022-11-18T12:21:35.696Z,16
2022-11-18T12:22:44.235Z,13.3
2022-11-18T12:23:52.583Z,13.3
2022-11-18T12:25:00.917Z,13.3
2022-11-18T12:26:09.453Z,7.3
2022-11-18T12:27:17.791Z,7.3
2022-11-18T12:28:26.128Z,7.3
2022-11-18T12:29:34.708Z,5.9
2022-11-18T12:30:43.038Z,5.9
2022-11-18T12:31:51.361Z,5.9
2022-11-18T12:32:59.911Z,5.4
2022-11-18T12:34:08.245Z,5.4
2022-11-18T12:35:16.577Z,5.4
2022-11-18T12:36:25.136Z,10.8
2022-11-18T12:37:33.450Z,10.8
2022-11-18T12:38:41.786Z,10.8
2022-11-18T12:39:50.327Z,10.8
2022-11-18T12:40:58.658Z,10.8
2022-11-18T12:42:06.988Z,10.8
2022-11-18T12:43:15.527Z,7.2
2022-11-18T12:44:23.879Z,7.2
2022-11-18T12:45:32.203Z,7.2
2022-11-18T12:46:45.478Z,6.8
2022-11-18T12:47:49.079Z,6.8
2022-11-18T12:48:57.421Z,6.8
2022-11-18T12:50:05.965Z,6.3
2022-11-18T12:51:14.297Z,6.3
2022-11-18T12:52:22.694Z,6.3
2022-11-18T12:53:31.153Z,6.7
2022-11-18T12:54:39.484Z,6.7
2022-11-18T12:55:47.819Z,6.7
2022-11-18T12:56:56.372Z,7.9
2022-11-18T12:58:04.696Z,7.9
2022-11-18T12:59:13.072Z,7.9
2022-11-18T13:00:21.614Z,8.1
2022-11-18T13:01:29.923Z,8.1
2022-11-18T13:02:38.269Z,8.1
2022-11-18T13:03:46.826Z,8.7
2022-11-18T13:04:55.161Z,8.7
2022-11-18T13:06:03.497Z,8.7
2022-11-18T13:07:12.082Z,26.5
2022-11-18T13:08:20.391Z,26.5
2022-11-18T13:09:28.715Z,26.5
2022-11-18T13:10:37.252Z,46.400002
2022-11-18T13:11:45.640Z,46.400002
2022-11-18T13:12:53.908Z,46.400002
2022-11-18T13:14:02.460Z,28.4
2022-11-18T13:15:10.782Z,28.4
2022-11-18T13:16:19.105Z,28.4
2022-11-18T13:17:27.653Z,69.099998
2022-11-18T13:18:35.979Z,69.099998
2022-11-18T13:19:44.316Z,69.099998
2022-11-18T13:20:52.859Z,57.599998
2022-11-18T13:22:01.195Z,57.599998
2022-11-18T13:23:09.522Z,57.599998
2022-11-18T13:24:18.099Z,60.200001
2022-11-18T13:25:26.439Z,60.200001
2022-11-18T13:26:34.734Z,60.200001
2022-11-18T13:27:43.277Z,60
2022-11-18T13:28:51.614Z,60
2022-11-18T13:29:59.954Z,60
2022-11-18T13:31:08.498Z,42.599998
2022-11-18T13:32:16.849Z,42.599998
2022-11-18T13:33:25.172Z,42.599998
2022-11-18T13:34:33.734Z,31.6
2022-11-18T13:35:42.061Z,31.6
2022-11-18T13:36:50.396Z,31.6
2022-11-18T13:37:58.931Z,23.4
2022-11-18T13:39:07.299Z,23.4
2022-11-18T13:40:15.659Z,23.4
2022-11-18T13:41:24.215Z,25.299999
2022-11-18T13:42:32.507Z,25.299999
2022-11-18T13:43:40.845Z,25.299999
2022-11-18T13:44:49.384Z,17.200001
2022-11-18T13:45:57.713Z,17.200001
2022-11-18T13:47:06.042Z,17.200001
2022-11-18T13:48:14.594Z,19.700001
2022-11-18T13:49:22.948Z,19.700001
2022-11-18T13:50:31.283Z,19.700001
2022-11-18T13:51:39.816Z,62.5
2022-11-18T13:52:48.144Z,62.5
2022-11-18T13:53:56.482Z,62.5
2022-11-18T13:55:05.023Z,19.700001
2022-11-18T13:56:13.386Z,19.700001
2022-11-18T13:57:21.703Z,19.700001
2022-11-18T13:58:30.354Z,32
2022-11-18T13:59:38.589Z,32
2022-11-18T14:00:46.940Z,32
2022-11-18T14:01:55.453Z,31.9
2022-11-18T14:03:03.782Z,31.9
2022-11-18T14:04:12.121Z,31.9
2022-11-18T14:05:21.787Z,17.200001
2022-11-18T14:06:29.012Z,17.200001
2022-11-18T14:07:37.384Z,17.200001
2022-11-18T14:08:45.892Z,16.9
2022-11-18T14:09:54.218Z,16.9
2022-11-18T14:11:02.554Z,16.9
2022-11-18T14:12:11.233Z,28.5
2022-11-18T14:13:19.455Z,28.5
2022-11-18T14:14:27.793Z,28.5
2022-11-18T14:15:40.669Z,17.299999
2022-11-18T14:16:44.669Z,17.299999
2022-11-18T14:17:52.995Z,17.299999
2022-11-18T14:19:01.547Z,19.799999
2022-11-18T14:20:09.886Z,19.799999
2022-11-18T14:21:18.205Z,19.799999
2022-11-18T14:22:26.763Z,14.7
2022-11-18T14:23:35.089Z,14.7
2022-11-18T14:24:43.432Z,14.7
2022-11-18T14:25:51.975Z,39.700001
2022-11-18T14:27:00.302Z,39.700001
2022-11-18T14:28:08.717Z,39.700001
2022-11-18T14:29:17.613Z,11
2022-11-18T14:30:25.603Z,11
2022-11-18T15:03:53.875Z,0
2022-11-18T15:05:02.178Z,0
2022-11-18T15:06:10.506Z,0
2022-11-18T15:07:23.630Z,4.9
2022-11-18T15:08:27.370Z,4.9
2022-11-18T15:09:35.705Z,4.9
2022-11-18T15:10:44.243Z,4.2
2022-11-18T15:11:52.587Z,4.2
2022-11-18T15:13:00.907Z,4.2
2022-11-18T15:14:09.451Z,5.5
2022-11-18T15:15:17.779Z,5.5
2022-11-18T15:16:26.110Z,5.5
2022-11-18T15:17:35.667Z,4.3
2022-11-18T15:18:42.981Z,4.3
2022-11-18T15:19:51.346Z,4.3
2022-11-18T15:20:59.848Z,3.9
2022-11-18T15:22:08.184Z,3.9
2022-11-18T15:23:16.512Z,3.9
2022-11-18T15:24:25.089Z,3.2
2022-11-18T15:25:33.414Z,3.2
2022-11-18T15:26:41.765Z,3.2
2022-11-18T15:27:50.295Z,4
2022-11-18T15:28:58.633Z,4
2022-11-18T15:30:06.969Z,4
2022-11-18T15:31:15.487Z,10.9
2022-11-18T15:32:23.823Z,10.9
2022-11-18T15:33:32.150Z,10.9
2022-11-18T15:34:40.709Z,9
2022-11-18T15:35:49.060Z,9
2022-11-18T15:36:57.357Z,9
2022-11-18T15:38:05.907Z,6.6
2022-11-18T15:39:14.246Z,6.6
2022-11-18T15:40:22.576Z,6.6
2022-11-18T15:41:31.113Z,4.9
2022-11-18T15:42:47.435Z,4.9
2022-11-18T15:43:47.776Z,4.9
2022-11-18T15:44:56.310Z,6.6
2022-11-18T15:46:04.640Z,6.6
2022-11-18T15:47:12.977Z,6.6
2022-11-18T15:48:21.504Z,9.2
2022-11-18T15:49:29.899Z,9.2